createdAt,value
2023-05-11T00:00:23.662Z,22.70
2023-05-11T00:05:29.986Z,22.70
2023-05-11T00:10:33.829Z,22.70
2023-05-11T00:15:37.661Z,22.70
2023-05-11T00:20:42.934Z,22.70
2023-05-11T00:25:46.843Z,22.70
2023-05-11T00:30:50.756Z,22.70
2023-05-11T00:35:56.472Z,22.70
2023-05-11T00:41:00.699Z,22.70
2023-05-11T00:46:05.353Z,22.70
2023-05-11T00:51:10.244Z,22.60
2023-05-11T00:56:14.290Z,22.60
2023-05-11T01:01:18.873Z,22.70
2023-05-11T01:06:42.574Z,22.70
2023-05-11T01:11:55.699Z,22.70
2023-05-11T01:17:10.435Z,22.60
2023-05-11T01:22:36.364Z,22.70
2023-05-11T01:28:06.642Z,22.70
2023-05-11T01:33:14.866Z,22.70
2023-05-11T01:38:23.334Z,22.70
2023-05-11T01:43:29.571Z,22.70
2023-05-11T01:48:42.290Z,22.60
2023-05-11T01:53:47.692Z,22.70
2023-05-11T01:58:53.638Z,22.60
2023-05-11T02:04:04.038Z,22.70
2023-05-11T02:09:09.405Z,22.70
2023-05-11T02:14:13.891Z,22.70
2023-05-11T02:19:19.715Z,22.70
2023-05-11T02:24:26.421Z,22.70
2023-05-11T02:29:30.485Z,22.70
2023-05-11T02:34:43.064Z,22.70
2023-05-11T02:39:56.698Z,22.70
2023-05-11T02:45:05.090Z,22.70
2023-05-11T02:50:12.921Z,22.70
2023-05-11T02:55:23.431Z,22.70
2023-05-11T03:00:27.885Z,22.70
2023-05-11T03:05:33.113Z,22.70
2023-05-11T03:10:37.657Z,22.70
2023-05-11T03:15:43.381Z,22.70
2023-05-11T03:20:50.413Z,22.70
2023-05-11T03:25:54.715Z,22.70
2023-05-11T03:30:58.643Z,22.70
2023-05-11T03:36:06.136Z,22.70
2023-05-11T03:41:12.107Z,22.70
2023-05-11T03:46:22.448Z,22.70
2023-05-11T03:51:27.743Z,22.70
2023-05-11T03:56:31.995Z,22.70
2023-05-11T04:01:36.037Z,22.70
2023-05-11T04:06:40.829Z,22.70
2023-05-11T04:11:49.365Z,22.70
2023-05-11T04:16:52.775Z,22.70
2023-05-11T04:21:57.566Z,22.70
2023-05-11T04:27:01.001Z,22.70
2023-05-11T04:32:04.950Z,22.70
2023-05-11T04:37:10.349Z,22.70
2023-05-11T04:42:15.531Z,22.70
2023-05-11T04:47:21.349Z,22.70
2023-05-11T04:52:27.466Z,22.70
2023-05-11T04:57:31.382Z,22.70
2023-05-11T05:02:36.043Z,22.70
2023-05-11T05:07:41.241Z,22.60
2023-05-11T05:12:45.093Z,22.70
2023-05-11T05:17:49.022Z,22.70
2023-05-11T05:22:55.311Z,22.70
2023-05-11T05:27:59.154Z,22.70
2023-05-11T05:33:03.476Z,22.70
2023-05-11T05:38:09.941Z,22.60
2023-05-11T05:43:13.564Z,22.60
2023-05-11T05:48:16.979Z,22.60
2023-05-11T05:53:21.856Z,22.60
2023-05-11T05:58:25.683Z,22.60
2023-05-11T06:03:29.998Z,22.60
2023-05-11T06:08:35.854Z,22.60
2023-05-11T06:13:39.619Z,22.50
2023-05-11T06:18:48.323Z,22.60
2023-05-11T06:23:54.452Z,22.60
2023-05-11T06:28:58.315Z,22.50
2023-05-11T06:34:03.301Z,22.50
2023-05-11T06:39:09.815Z,22.50
2023-05-11T06:44:14.016Z,22.40
2023-05-11T06:49:21.641Z,22.50
2023-05-11T06:54:27.246Z,22.50
2023-05-11T06:59:32.586Z,22.40
2023-05-11T07:04:37.498Z,22.30
2023-05-11T07:09:44.074Z,22.30
2023-05-11T07:14:48.498Z,22.30
2023-05-11T07:19:53.718Z,22.30
2023-05-11T07:25:01.719Z,22.20
2023-05-11T07:30:07.498Z,22.20
2023-05-11T07:35:11.788Z,22.10
2023-05-11T07:40:17.486Z,22.20
2023-05-11T07:45:21.711Z,22.30
2023-05-11T07:50:25.873Z,22.30
2023-05-11T07:55:31.445Z,22.30
2023-05-11T08:00:35.655Z,22.30
2023-05-11T08:05:39.951Z,22.30
2023-05-11T08:10:45.300Z,22.30
2023-05-11T08:15:49.872Z,22.30
2023-05-11T08:20:55.255Z,22.30
2023-05-11T08:26:01.500Z,22.40
2023-05-11T08:31:06.551Z,22.30
2023-05-11T08:36:13.925Z,22.30
2023-05-11T08:41:19.101Z,22.30
2023-05-11T08:46:27.824Z,22.40
2023-05-11T08:51:32.807Z,22.40
2023-05-11T08:56:39.046Z,22.40
2023-05-11T09:01:43.281Z,22.40
2023-05-11T09:06:46.966Z,22.40
2023-05-11T09:11:52.473Z,22.40
2023-05-11T09:16:55.934Z,22.40
2023-05-11T09:22:00.983Z,22.40
2023-05-11T09:27:12.101Z,22.40
2023-05-11T09:32:16.607Z,22.40
2023-05-11T09:37:20.622Z,22.40
2023-05-11T09:42:25.371Z,22.40
2023-05-11T09:47:30.473Z,22.40
2023-05-11T09:52:33.853Z,22.50
2023-05-11T09:57:38.761Z,22.50
2023-05-11T10:02:42.278Z,22.30
2023-05-11T10:07:45.870Z,22.30
2023-05-11T10:12:50.908Z,22.40
2023-05-11T10:17:57.097Z,22.40
2023-05-11T10:23:00.689Z,22.40
2023-05-11T10:28:06.290Z,22.40
2023-05-11T10:33:10.963Z,22.40
2023-05-11T10:38:16.284Z,22.40
2023-05-11T10:43:56.099Z,22.50
2023-05-11T10:49:37.262Z,22.50
2023-05-11T10:55:02.234Z,22.60
2023-05-11T11:01:22.518Z,22.60
2023-05-11T11:06:28.602Z,22.60
2023-05-11T11:11:39.392Z,22.50
2023-05-11T11:17:24.489Z,22.60
2023-05-11T11:22:49.687Z,22.60
2023-05-11T11:28:00.301Z,22.60
2023-05-11T11:33:36.525Z,22.60
2023-05-11T11:39:01.853Z,22.70
2023-05-11T11:44:06.991Z,22.70
2023-05-11T11:49:13.327Z,22.70
2023-05-11T11:54:41.162Z,22.50
2023-05-11T11:59:48.771Z,22.20
2023-05-11T12:04:59.341Z,22.10
2023-05-11T12:10:06.666Z,22.10
2023-05-11T12:15:25.315Z,22.10
2023-05-11T12:20:35.769Z,22.10
2023-05-11T12:25:40.668Z,22.30
2023-05-11T12:30:58.454Z,22.40
2023-05-11T12:36:09.093Z,22.50
2023-05-11T12:41:13.081Z,22.50
2023-05-11T12:46:17.008Z,22.50
2023-05-11T12:51:52.042Z,22.50
2023-05-11T12:56:55.655Z,22.40
2023-05-11T13:02:15.662Z,22.60
2023-05-11T13:07:29.322Z,22.50
2023-05-11T13:12:34.236Z,22.20
2023-05-11T13:17:40.081Z,22.00
2023-05-11T13:22:45.416Z,22.20
2023-05-11T13:27:49.031Z,21.90
2023-05-11T13:32:52.533Z,22.10
2023-05-11T13:37:57.976Z,22.20
2023-05-11T13:43:03.210Z,22.30
2023-05-11T13:48:07.545Z,22.20
2023-05-11T13:53:14.373Z,22.00
2023-05-11T13:58:18.816Z,22.10
2023-05-11T14:03:23.437Z,22.00
2023-05-11T14:08:28.272Z,22.00
2023-05-11T14:13:31.656Z,22.10
2023-05-11T14:18:35.028Z,22.10
2023-05-11T14:23:45.000Z,22.20
2023-05-11T14:28:53.637Z,22.20
2023-05-11T14:33:57.538Z,22.20
2023-05-11T14:39:02.719Z,22.20
2023-05-11T14:44:06.220Z,22.10
2023-05-11T14:49:09.618Z,22.10
2023-05-11T14:54:14.358Z,22.10
2023-05-11T14:59:17.985Z,22.00
2023-05-11T15:04:22.337Z,22.00
2023-05-11T15:09:27.841Z,22.10
2023-05-11T15:14:31.306Z,22.20
2023-05-11T15:19:34.662Z,22.20
2023-05-11T15:24:39.446Z,22.30
2023-05-11T15:29:43.020Z,22.40
2023-05-11T15:34:58.565Z,22.50
2023-05-11T15:40:04.697Z,22.50
2023-05-11T15:45:10.037Z,22.50
2023-05-11T15:50:14.390Z,22.60
2023-05-11T15:55:19.588Z,22.60
2023-05-11T16:00:23.420Z,22.50
2023-05-11T16:05:29.410Z,22.50
2023-05-11T16:10:37.084Z,22.50
2023-05-11T16:15:40.902Z,22.60
2023-05-11T16:20:46.567Z,22.60
2023-05-11T16:25:53.340Z,22.60
2023-05-11T16:31:02.571Z,22.50
2023-05-11T16:36:07.328Z,22.50
2023-05-11T16:41:13.168Z,22.50
2023-05-11T16:46:16.910Z,22.50
2023-05-11T16:51:20.710Z,22.50
2023-05-11T16:56:25.825Z,22.40
2023-05-11T17:01:29.537Z,22.50
2023-05-11T17:06:33.235Z,22.50
2023-05-11T17:11:38.413Z,22.50
2023-05-11T17:16:42.203Z,22.40
2023-05-11T17:21:45.657Z,22.50
2023-05-11T17:26:50.492Z,22.50
2023-05-11T17:31:54.039Z,22.50
2023-05-11T17:36:58.502Z,22.50
2023-05-11T17:42:03.509Z,22.50
2023-05-11T17:47:07.815Z,22.50
2023-05-11T17:52:11.838Z,22.50
2023-05-11T17:57:16.926Z,22.50
2023-05-11T18:02:23.592Z,22.50
2023-05-11T18:07:27.435Z,22.50
2023-05-11T18:12:35.086Z,22.60
2023-05-11T18:17:40.819Z,22.60
2023-05-11T18:22:44.402Z,22.70
2023-05-11T18:27:50.192Z,22.60
2023-05-11T18:32:54.031Z,22.60
2023-05-11T18:37:58.846Z,22.60
2023-05-11T18:43:04.175Z,22.60
2023-05-11T18:48:08.369Z,22.60
2023-05-11T18:53:12.057Z,22.70
2023-05-11T18:58:20.108Z,22.70
2023-05-11T19:03:23.937Z,22.60
2023-05-11T19:08:27.600Z,22.70
2023-05-11T19:13:32.774Z,22.70
2023-05-11T19:18:37.127Z,22.70
2023-05-11T19:23:40.941Z,22.60
2023-05-11T19:28:48.578Z,22.70
2023-05-11T19:33:53.052Z,22.60
2023-05-11T19:38:56.824Z,22.60
2023-05-11T19:44:07.095Z,22.60
2023-05-11T19:49:11.120Z,22.60
2023-05-11T19:54:15.529Z,22.60
2023-05-11T19:59:20.603Z,22.60
2023-05-11T20:04:24.273Z,22.60
2023-05-11T20:09:28.047Z,22.60
2023-05-11T20:14:35.836Z,22.60
2023-05-11T20:19:39.746Z,22.60
2023-05-11T20:24:43.398Z,22.60
2023-05-11T20:29:48.262Z,22.60
2023-05-11T20:34:52.138Z,22.60
2023-05-11T20:39:58.911Z,22.60
2023-05-11T20:45:07.314Z,22.60
2023-05-11T20:50:15.839Z,22.70
2023-05-11T20:55:20.341Z,22.70
2023-05-11T21:00:30.664Z,22.60
2023-05-11T21:05:34.260Z,22.70
2023-05-11T21:10:37.787Z,22.70
2023-05-11T21:15:42.823Z,22.60
2023-05-11T21:20:46.487Z,22.60
2023-05-11T21:25:53.915Z,22.60
2023-05-11T21:30:58.855Z,22.60
2023-05-11T21:36:04.307Z,22.70
2023-05-11T21:41:09.089Z,22.70
2023-05-11T21:46:13.990Z,22.60
2023-05-11T21:51:17.425Z,22.60
2023-05-11T21:56:20.821Z,22.50
2023-05-11T22:01:25.966Z,22.50
2023-05-11T22:06:29.476Z,22.50
2023-05-11T22:11:34.647Z,22.60
2023-05-11T22:16:39.803Z,22.60
2023-05-11T22:21:43.323Z,22.70
2023-05-11T22:26:46.943Z,22.60
2023-05-11T22:31:51.969Z,22.70
2023-05-11T22:36:55.644Z,22.60
2023-05-11T22:41:59.530Z,22.70
2023-05-11T22:47:04.941Z,22.70
2023-05-11T22:52:09.196Z,22.60
2023-05-11T22:57:14.821Z,22.60
2023-05-11T23:02:20.013Z,22.60
2023-05-11T23:07:23.781Z,22.70
2023-05-11T23:12:27.172Z,22.70
2023-05-11T23:17:32.088Z,22.70
2023-05-11T23:22:35.507Z,22.70
2023-05-11T23:27:38.861Z,22.70
2023-05-11T23:32:43.608Z,22.70
2023-05-11T23:37:46.968Z,22.70
2023-05-11T23:42:51.168Z,22.70
2023-05-11T23:47:56.279Z,22.70
2023-05-11T23:52:59.790Z,22.70
2023-05-11T23:58:03.117Z,22.60
